Time;durP1;ratioP1;P1;durP2;ratioP2;P2;SDS_P1;SDS_P2;PMS_P1;PMS_P2;Temp;Humidity;BMP_temperature;BMP_pressure;BME280_temperature;BME280_humidity;BME280_pressure;Samples;Min_cycle;Max_cycle;Signal;HPM_P1;HPM_P2
2021/05/15 00:00:38;;;;;;;2.92;2.30;;;;;;;14.20;73.41;99672.66;1763332;79;21536;-42
2021/05/15 00:03:05;;;;;;;3.00;2.22;;;;;;;14.18;73.59;99673.77;1745128;79;21006;-46
2021/05/15 00:05:31;;;;;;;3.12;2.00;;;;;;;14.18;73.65;99679.13;1756568;79;21006;-43
2021/05/15 00:07:59;;;;;;;3.20;2.10;;;;;;;14.19;73.77;99672.31;1768889;79;21002;-43
2021/05/15 00:10:26;;;;;;;3.50;2.02;;;;;;;14.21;73.89;99673.03;1767276;79;20993;-43
2021/05/15 00:12:52;;;;;;;2.10;1.90;;;;;;;14.22;74.02;99676.56;1709624;82;21059;-41
2021/05/15 00:15:19;;;;;;;3.87;2.40;;;;;;;14.23;74.23;99673.73;1753205;79;21556;-44
2021/05/15 00:17:45;;;;;;;2.77;2.22;;;;;;;14.24;74.46;99678.12;1760001;79;20964;-44
2021/05/15 00:20:15;;;;;;;3.58;1.90;;;;;;;14.26;74.61;99679.31;1763889;79;21035;-47
2021/05/15 00:22:44;;;;;;;2.52;2.00;;;;;;;14.27;74.80;99688.58;1756422;79;20991;-43
2021/05/15 00:25:12;;;;;;;3.05;2.10;;;;;;;14.29;75.05;99685.78;1757639;79;21037;-45
2021/05/15 00:27:39;;;;;;;3.75;2.37;;;;;;;14.28;75.31;99678.20;1750478;79;21005;-43
2021/05/15 00:30:11;;;;;;;3.25;2.12;;;;;;;14.28;75.47;99683.56;1757031;79;21074;-44
2021/05/15 00:32:37;;;;;;;4.20;1.77;;;;;;;14.27;75.51;99679.19;1748767;80;21416;-44
2021/05/15 00:35:05;;;;;;;6.20;2.67;;;;;;;14.25;75.22;99675.79;1761927;79;21037;-45
2021/05/15 00:37:31;;;;;;;4.72;2.20;;;;;;;14.22;75.13;99676.06;1766862;79;21040;-46
2021/05/15 00:39:58;;;;;;;3.33;1.98;;;;;;;14.22;75.17;99678.74;1762679;79;21073;-43
2021/05/15 00:42:25;;;;;;;3.62;1.90;;;;;;;14.21;75.19;99677.05;1711407;82;21041;-46
2021/05/15 00:44:51;;;;;;;2.80;2.05;;;;;;;14.22;75.25;99680.08;1759352;79;21002;-43
2021/05/15 00:47:20;;;;;;;3.17;2.25;;;;;;;14.22;75.30;99677.41;1756922;79;21494;-44
2021/05/15 00:49:48;;;;;;;2.95;2.30;;;;;;;14.22;75.37;99677.41;1758351;79;21313;-45
2021/05/15 00:52:14;;;;;;;3.75;2.27;;;;;;;14.23;75.39;99673.73;1761720;79;21041;-41
2021/05/15 00:54:42;;;;;;;3.15;2.25;;;;;;;14.24;75.46;99674.11;1760432;80;21041;-43
2021/05/15 00:57:10;;;;;;;3.60;2.67;;;;;;;14.24;75.46;99677.28;1759558;79;20998;-41
2021/05/15 00:59:37;;;;;;;2.42;2.22;;;;;;;14.22;75.42;99673.37;1762839;79;21026;-44
2021/05/15 01:02:04;;;;;;;3.60;2.72;;;;;;;14.22;75.29;99678.74;1758196;79;20981;-43
2021/05/15 01:04:31;;;;;;;3.75;2.47;;;;;;;14.22;75.23;99680.08;1763483;79;21065;-45
2021/05/15 01:06:58;;;;;;;2.83;2.20;;;;;;;14.21;75.21;99685.56;1759099;79;21025;-48
2021/05/15 01:09:26;;;;;;;2.65;2.35;;;;;;;14.21;75.17;99687.78;1764776;80;20998;-48
2021/05/15 01:11:52;;;;;;;2.92;2.33;;;;;;;14.20;75.14;99679.86;1758836;79;21010;-45
2021/05/15 01:14:19;;;;;;;3.35;2.37;;;;;;;14.18;75.17;99688.02;1768369;79;21585;-44
2021/05/15 01:16:49;;;;;;;3.20;2.40;;;;;;;14.18;75.17;99689.86;1765729;79;20967;-46
2021/05/15 01:19:16;;;;;;;3.72;2.90;;;;;;;14.19;75.18;99694.26;1769711;79;21093;-44
2021/05/15 01:21:43;;;;;;;4.55;2.50;;;;;;;14.18;75.19;99688.02;1760360;79;21057;-44
2021/05/15 01:24:10;;;;;;;2.40;1.90;;;;;;;14.20;75.27;99686.56;1764534;79;21030;-43
2021/05/15 01:26:37;;;;;;;2.70;2.00;;;;;;;14.19;75.44;99688.89;1765075;79;21377;-48
2021/05/15 01:29:06;;;;;;;2.58;2.12;;;;;;;14.17;75.50;99687.67;1765920;80;21033;-53
2021/05/15 01:31:33;;;;;;;3.87;2.50;;;;;;;14.18;75.62;99693.38;1759488;79;21855;-45
2021/05/15 01:34:00;;;;;;;4.20;2.80;;;;;;;14.18;75.68;99689.36;1759501;79;21037;-44
2021/05/15 01:36:27;;;;;;;3.35;2.70;;;;;;;14.18;75.73;99693.38;1763619;79;21510;-42
2021/05/15 01:38:55;;;;;;;4.12;2.65;;;;;;;14.19;75.77;99693.76;1758518;80;21065;-43
2021/05/15 01:41:22;;;;;;;4.12;2.80;;;;;;;14.19;75.88;99686.22;1754191;79;21010;-48
2021/05/15 01:43:49;;;;;;;3.00;2.12;;;;;;;14.18;76.02;99688.52;1759872;79;21041;-46
2021/05/15 01:46:15;;;;;;;2.22;2.02;;;;;;;14.18;76.16;99693.38;1762346;79;21029;-46
2021/05/15 01:48:44;;;;;;;3.62;2.42;;;;;;;14.19;76.33;99691.08;1756224;79;21036;-44
2021/05/15 01:51:12;;;;;;;4.95;2.55;;;;;;;14.19;76.48;99691.08;1764441;79;21559;-45
2021/05/15 01:53:48;;;;;;;4.58;3.20;;;;;;;14.20;76.60;99693.27;1758076;79;21055;-47
2021/05/15 01:56:19;;;;;;;4.78;2.92;;;;;;;14.21;76.68;99697.63;1757676;79;20962;-43
2021/05/15 01:58:46;;;;;;;3.90;2.50;;;;;;;14.21;76.70;99695.83;1754782;79;21058;-44
2021/05/15 02:01:13;;;;;;;4.10;3.02;;;;;;;14.24;76.84;99696.89;1756485;79;21010;-41
2021/05/15 02:03:41;;;;;;;4.17;2.98;;;;;;;14.31;76.74;99700.38;1757769;79;21021;-42
2021/05/15 02:06:08;;;;;;;3.08;2.58;;;;;;;14.39;76.61;99705.92;1756732;79;21045;-43
2021/05/15 02:08:34;;;;;;;4.58;2.50;;;;;;;14.46;76.40;99704.41;1757249;79;21763;-40
2021/05/15 02:11:02;;;;;;;2.87;2.37;;;;;;;14.53;76.15;99707.42;1767934;79;21392;-40
2021/05/15 02:13:29;;;;;;;5.58;2.80;;;;;;;14.55;75.88;99702.31;1758936;79;21001;-40
2021/05/15 02:15:59;;;;;;;4.28;3.05;;;;;;;14.59;75.62;99702.41;1756113;79;21029;-39
2021/05/15 02:18:26;;;;;;;3.80;2.95;;;;;;;14.61;75.40;99703.09;1752515;79;21603;-41
2021/05/15 02:20:54;;;;;;;4.33;2.80;;;;;;;14.65;75.18;99706.38;1759533;79;21474;-42
2021/05/15 02:23:21;;;;;;;3.62;2.52;;;;;;;14.67;74.96;99709.79;1765802;79;21035;-41
2021/05/15 02:25:48;;;;;;;4.20;3.27;;;;;;;14.68;74.82;99716.84;1766911;79;20994;-42
2021/05/15 02:28:16;;;;;;;5.05;3.35;;;;;;;14.70;74.67;99714.38;1756991;79;21029;-42
2021/05/15 02:30:43;;;;;;;3.37;2.67;;;;;;;14.72;74.51;99714.26;1764178;79;20998;-41
2021/05/15 02:33:11;;;;;;;3.45;2.77;;;;;;;14.71;74.30;99715.22;1772447;79;21001;-43
2021/05/15 02:35:37;;;;;;;3.17;2.55;;;;;;;14.71;74.10;99717.41;1766598;79;21369;-42
2021/05/15 02:38:07;;;;;;;4.47;2.30;;;;;;;14.71;73.96;99721.43;1752260;79;21105;-42
2021/05/15 02:40:33;;;;;;;3.90;2.35;;;;;;;14.71;73.92;99720.59;1748621;79;21089;-43
2021/05/15 02:43:00;;;;;;;6.12;3.27;;;;;;;14.74;73.85;99723.50;1755872;79;21037;-43
2021/05/15 02:45:26;;;;;;;5.25;3.08;;;;;;;14.75;73.77;99724.72;1718326;81;21000;-41
2021/05/15 02:47:53;;;;;;;3.95;2.98;;;;;;;14.77;73.74;99728.62;1750137;80;21041;-43
2021/05/15 02:50:21;;;;;;;4.95;3.37;;;;;;;14.77;73.67;99729.46;1759006;79;21030;-41
2021/05/15 02:52:48;;;;;;;4.08;3.02;;;;;;;14.79;73.67;99737.36;1757828;79;21039;-42
2021/05/15 02:55:18;;;;;;;3.30;3.00;;;;;;;14.80;73.71;99737.73;1756545;80;21077;-39
2021/05/15 02:57:45;;;;;;;4.53;3.10;;;;;;;14.80;73.76;99735.89;1724412;81;20995;-42
2021/05/15 03:00:15;;;;;;;4.78;3.20;;;;;;;14.78;73.83;99744.56;1698538;82;21051;-41
2021/05/15 03:02:42;;;;;;;;;;;;;;;14.82;73.85;99741.98;1758173;80;20954;-45
2021/05/15 03:05:12;;;;;;;4.83;3.27;;;;;;;14.86;73.83;99743.89;1760796;79;20417;-45
2021/05/15 03:07:38;;;;;;;4.30;3.58;;;;;;;14.89;73.83;99751.20;1761613;79;20990;-44
2021/05/15 03:10:07;;;;;;;4.28;3.27;;;;;;;14.92;73.79;99757.63;1753934;79;21019;-48
2021/05/15 03:12:33;;;;;;;5.35;3.67;;;;;;;14.95;73.77;99765.06;1753651;79;21362;-45
2021/05/15 03:15:07;;;;;;;4.28;3.33;;;;;;;14.96;73.74;99766.75;1756753;80;21002;-40
2021/05/15 03:17:36;;;;;;;4.20;3.25;;;;;;;14.97;73.62;99761.27;1751320;79;20990;-41
2021/05/15 03:20:05;;;;;;;4.15;3.33;;;;;;;15.01;73.51;99764.02;1755640;79;21002;-45
2021/05/15 03:22:32;;;;;;;5.12;3.77;;;;;;;15.01;73.44;99759.98;1759098;79;20978;-43
2021/05/15 03:24:59;;;;;;;3.70;3.22;;;;;;;15.04;73.38;99765.58;1754416;79;21006;-44
2021/05/15 03:27:25;;;;;;;3.62;3.22;;;;;;;15.05;73.33;99768.14;1753234;79;20966;-45
2021/05/15 03:29:52;;;;;;;5.45;3.47;;;;;;;15.09;73.28;99771.39;1759343;79;21053;-44
2021/05/15 03:32:19;;;;;;;5.10;3.37;;;;;;;15.12;73.25;99767.11;1759723;79;20998;-42
2021/05/15 03:34:46;;;;;;;4.55;3.52;;;;;;;15.14;73.17;99765.99;1761458;79;21021;-44
2021/05/15 03:37:12;;;;;;;5.67;3.45;;;;;;;15.17;73.00;99768.02;1763174;79;21069;-40
2021/05/15 03:39:39;;;;;;;6.33;3.15;;;;;;;15.19;72.95;99766.05;1763658;79;21685;-43
2021/05/15 03:42:06;;;;;;;3.15;2.65;;;;;;;15.19;72.88;99765.55;1769055;79;20994;-43
2021/05/15 03:44:34;;;;;;;3.52;3.22;;;;;;;15.22;72.81;99767.12;1765745;79;21556;-45
2021/05/15 03:47:01;;;;;;;3.37;2.62;;;;;;;15.23;72.64;99760.28;1769271;79;21038;-45
2021/05/15 03:49:27;;;;;;;4.72;2.70;;;;;;;15.26;72.58;99765.37;1718821;81;20996;-46
2021/05/15 03:51:54;;;;;;;4.10;3.20;;;;;;;15.28;72.53;99768.78;1761396;79;21029;-44
2021/05/15 03:54:21;;;;;;;4.97;2.85;;;;;;;15.30;72.56;99776.20;1761352;79;21049;-44
2021/05/15 03:56:48;;;;;;;3.60;3.10;;;;;;;15.35;72.65;99771.77;1764070;79;20970;-43
2021/05/15 03:59:14;;;;;;;7.10;4.47;;;;;;;15.39;72.60;99771.84;1766669;79;21017;-45
2021/05/15 04:01:43;;;;;;;3.33;2.80;;;;;;;15.44;72.66;99771.42;1760169;79;20998;-43
2021/05/15 04:04:09;;;;;;;4.20;2.85;;;;;;;15.48;72.57;99768.83;1761500;79;21021;-45
2021/05/15 04:06:36;;;;;;;5.37;3.92;;;;;;;15.52;72.46;99770.23;1761536;79;21029;-47
2021/05/15 04:09:04;;;;;;;3.70;2.87;;;;;;;15.57;72.36;99780.08;1761479;80;21029;-43
2021/05/15 04:11:35;;;;;;;5.17;3.30;;;;;;;15.60;72.16;99781.16;1761187;79;21069;-43
2021/05/15 04:14:31;;;;;;;4.55;2.90;;;;;;;15.62;72.03;99772.95;1765055;79;21028;-42
2021/05/15 04:16:48;;;;;;;3.65;2.90;;;;;;;15.66;71.95;99782.44;1765293;79;21541;-41
2021/05/15 04:19:12;;;;;;;4.87;2.72;;;;;;;15.68;71.98;99782.66;1770989;79;21066;-42
2021/05/15 04:21:39;;;;;;;3.15;2.85;;;;;;;15.71;71.97;99794.50;1758496;79;21013;-43
2021/05/15 04:24:06;;;;;;;3.65;2.80;;;;;;;15.75;71.95;99787.02;1757963;79;21029;-44
2021/05/15 04:26:33;;;;;;;3.37;2.45;;;;;;;15.78;71.90;99795.64;1765413;79;21037;-47
2021/05/15 04:29:00;;;;;;;3.83;3.30;;;;;;;15.83;71.68;99802.45;1748761;79;21006;-44
2021/05/15 04:31:28;;;;;;;4.30;3.00;;;;;;;15.86;71.70;99798.13;1767202;79;20990;-43
2021/05/15 04:33:55;;;;;;;5.08;3.52;;;;;;;15.89;71.39;99802.72;1765760;79;21010;-45
2021/05/15 04:36:22;;;;;;;2.92;2.52;;;;;;;15.92;71.13;99797.55;1755645;79;21029;-42
2021/05/15 04:38:52;;;;;;;2.92;2.62;;;;;;;15.94;70.80;99799.61;1752643;79;21124;-46
2021/05/15 04:41:17;;;;;;;6.55;2.98;;;;;;;15.96;70.76;99792.27;1750988;80;21042;-44
2021/05/15 04:43:43;;;;;;;4.08;2.67;;;;;;;15.99;70.65;99798.70;1743440;81;21022;-43
2021/05/15 04:46:10;;;;;;;3.92;3.40;;;;;;;16.04;70.66;99804.50;1744960;80;21611;-41
2021/05/15 04:48:38;;;;;;;3.37;2.75;;;;;;;16.07;70.54;99809.59;1741857;81;21053;-41
2021/05/15 04:51:05;;;;;;;5.90;2.90;;;;;;;16.09;70.62;99807.62;1744190;80;21006;-42
2021/05/15 04:53:32;;;;;;;5.05;2.92;;;;;;;16.11;70.51;99806.98;1747703;81;21057;-42
2021/05/15 04:56:00;;;;;;;3.35;2.50;;;;;;;16.14;70.50;99812.07;1748197;80;21022;-42
2021/05/15 04:58:27;;;;;;;3.92;2.80;;;;;;;16.17;70.50;99811.78;1747738;81;21062;-43
2021/05/15 05:00:53;;;;;;;3.30;2.52;;;;;;;16.21;70.43;99811.02;1744029;80;21023;-42
2021/05/15 05:03:20;;;;;;;2.55;2.12;;;;;;;16.23;70.25;99807.20;1749461;80;21018;-43
2021/05/15 05:05:47;;;;;;;3.35;2.35;;;;;;;16.28;70.18;99813.97;1740984;80;21030;-43
2021/05/15 05:08:14;;;;;;;3.60;2.58;;;;;;;16.31;70.22;99819.09;1749800;80;21014;-42
2021/05/15 05:10:41;;;;;;;3.45;2.80;;;;;;;16.34;70.03;99818.80;1746499;80;21620;-44
2021/05/15 05:13:09;;;;;;;6.15;2.52;;;;;;;16.38;69.93;99823.76;1750868;80;21493;-42
2021/05/15 05:15:36;;;;;;;2.75;2.37;;;;;;;16.41;69.59;99820.78;1742947;80;21589;-46
2021/05/15 05:18:03;;;;;;;2.67;2.25;;;;;;;16.45;69.50;99821.33;1751265;81;21014;-43
2021/05/15 05:20:30;;;;;;;2.47;2.12;;;;;;;16.47;69.42;99822.04;1748728;80;21015;-43
2021/05/15 05:22:57;;;;;;;2.40;1.80;;;;;;;16.49;69.39;99820.06;1749191;80;21018;-44
2021/05/15 05:25:23;;;;;;;3.45;2.00;;;;;;;16.52;69.32;99822.45;1746067;80;21077;-41
2021/05/15 05:27:50;;;;;;;3.10;2.02;;;;;;;16.56;69.20;99826.57;1749616;81;21038;-44
2021/05/15 05:30:19;;;;;;;3.10;1.90;;;;;;;16.59;69.00;99830.81;1739937;80;21900;-42
2021/05/15 05:32:47;;;;;;;2.95;2.20;;;;;;;16.61;68.77;99826.98;1748974;81;20987;-45
2021/05/15 05:35:14;;;;;;;3.77;2.65;;;;;;;16.64;68.75;99830.73;1736686;81;21537;-43
2021/05/15 05:37:41;;;;;;;2.80;2.20;;;;;;;16.66;68.73;99827.40;1754336;80;21366;-44
2021/05/15 05:40:12;;;;;;;2.58;2.10;;;;;;;16.71;68.75;99828.83;1752776;80;21108;-45
2021/05/15 05:42:39;;;;;;;3.17;2.30;;;;;;;16.75;68.77;99829.70;1753245;79;21026;-44
2021/05/15 05:45:16;;;;;;;3.60;1.57;;;;;;;16.81;68.79;99833.22;1755504;79;21042;-48
2021/05/15 05:47:43;;;;;;;3.05;1.90;;;;;;;16.86;68.71;99836.31;1749985;79;20998;-42
2021/05/15 05:50:10;;;;;;;2.20;1.85;;;;;;;16.87;68.47;99831.27;1748599;79;21009;-42
2021/05/15 05:52:38;;;;;;;2.83;1.85;;;;;;;16.91;68.44;99835.89;1763146;79;21775;-43
2021/05/15 05:55:06;;;;;;;4.00;2.12;;;;;;;16.97;68.48;99837.14;1763960;79;21006;-45
2021/05/15 05:57:33;;;;;;;3.50;2.77;;;;;;;17.01;68.57;99846.13;1753102;79;21002;-45
2021/05/15 06:00:00;;;;;;;3.20;1.77;;;;;;;17.06;68.57;99846.55;1756837;79;21602;-43
2021/05/15 06:02:27;;;;;;;3.00;1.98;;;;;;;17.11;67.99;99847.45;1764787;79;21006;-45
2021/05/15 06:04:53;;;;;;;4.60;2.30;;;;;;;17.14;67.70;99846.31;1769376;79;21661;-46
2021/05/15 06:07:20;;;;;;;2.37;1.90;;;;;;;17.15;67.60;99847.99;1771473;79;20978;-46
2021/05/15 06:09:47;;;;;;;1.80;1.25;;;;;;;17.18;67.43;99847.19;1761409;79;20982;-42
2021/05/15 06:12:14;;;;;;;2.00;1.50;;;;;;;17.20;67.17;99844.36;1765489;79;21049;-43
2021/05/15 06:14:41;;;;;;;2.90;2.10;;;;;;;17.23;66.99;99852.98;1771685;79;21497;-45
2021/05/15 06:17:07;;;;;;;1.82;1.47;;;;;;;17.30;66.97;99850.56;1765115;79;21045;-44
2021/05/15 06:19:34;;;;;;;2.52;2.22;;;;;;;17.37;66.71;99848.13;1766175;79;21022;-45
2021/05/15 06:22:01;;;;;;;2.75;2.00;;;;;;;17.42;66.46;99848.53;1766214;79;21017;-42
2021/05/15 06:24:27;;;;;;;2.42;1.95;;;;;;;17.43;66.29;99849.71;1755570;79;20994;-45
2021/05/15 06:26:54;;;;;;;3.40;2.10;;;;;;;17.47;66.29;99853.81;1765095;79;21037;-45
2021/05/15 06:29:21;;;;;;;3.85;2.10;;;;;;;17.48;66.24;99847.42;1756945;79;21505;-44
2021/05/15 06:31:47;;;;;;;3.20;2.40;;;;;;;17.52;66.32;99851.52;1718270;82;21076;-46
2021/05/15 06:34:14;;;;;;;3.47;2.27;;;;;;;17.59;66.54;99856.30;1726067;81;21035;-43
2021/05/15 06:36:40;;;;;;;4.78;2.17;;;;;;;17.68;66.76;99856.76;1703556;82;20992;-44
2021/05/15 06:39:07;;;;;;;2.98;2.27;;;;;;;17.76;65.97;99854.66;1717034;82;21095;-43
2021/05/15 06:41:34;;;;;;;3.92;2.00;;;;;;;17.82;65.98;99858.14;1754046;79;21068;-41
2021/05/15 06:44:01;;;;;;;2.65;2.17;;;;;;;17.89;66.54;99851.99;1748759;79;21033;-42
2021/05/15 06:46:28;;;;;;;2.12;1.82;;;;;;;18.12;66.82;99859.65;1762041;79;20998;-40
2021/05/15 06:48:54;;;;;;;3.05;1.87;;;;;;;18.38;66.57;99855.67;1765189;79;20987;-40
2021/05/15 06:51:23;;;;;;;2.67;1.95;;;;;;;18.65;66.24;99865.52;1766501;79;21532;-41
2021/05/15 06:53:50;;;;;;;2.95;1.85;;;;;;;18.83;65.48;99864.17;1757230;79;21002;-41
2021/05/15 06:56:16;;;;;;;3.15;1.42;;;;;;;18.95;64.86;99862.03;1765378;79;21009;-42
2021/05/15 06:58:45;;;;;;;3.35;1.57;;;;;;;19.03;64.26;99864.81;1750317;79;21818;-47
2021/05/15 07:01:12;;;;;;;4.12;2.02;;;;;;;19.10;63.51;99869.06;1739753;80;21083;-42
2021/05/15 07:03:38;;;;;;;9.78;8.83;;;;;;;19.11;62.79;99871.61;1725906;80;21031;-44
2021/05/15 07:06:05;;;;;;;3.30;2.83;;;;;;;19.12;62.23;99867.89;1739760;79;21014;-44
2021/05/15 07:08:32;;;;;;;7.97;6.97;;;;;;;19.11;61.74;99868.91;1759953;79;20998;-44
2021/05/15 07:10:58;;;;;;;2.72;2.30;;;;;;;19.09;61.69;99873.63;1762336;79;21029;-53
2021/05/15 07:13:25;;;;;;;1.85;1.45;;;;;;;19.08;61.71;99863.00;1758195;79;21001;-49
2021/05/15 07:15:55;;;;;;;3.85;1.90;;;;;;;19.05;61.48;99870.91;1766498;79;21030;-43
2021/05/15 07:18:27;;;;;;;2.27;1.40;;;;;;;19.03;61.95;99867.01;1764812;79;21041;-43
2021/05/15 07:20:53;;;;;;;1.70;1.52;;;;;;;19.07;62.54;99868.88;1755203;79;21466;-44
2021/05/15 07:23:20;;;;;;;2.25;1.57;;;;;;;19.10;62.52;99871.28;1753760;79;21532;-45
2021/05/15 07:25:46;;;;;;;2.92;1.85;;;;;;;19.14;62.70;99869.09;1754455;80;21014;-46
2021/05/15 07:28:13;;;;;;;2.40;1.92;;;;;;;19.18;62.62;99869.13;1757828;79;21033;-45
2021/05/15 07:30:40;;;;;;;3.55;1.67;;;;;;;19.23;62.72;99867.64;1757233;79;21029;-47
2021/05/15 07:33:07;;;;;;;2.77;1.85;;;;;;;19.28;62.24;99870.34;1756778;79;21415;-44
2021/05/15 07:35:39;;;;;;;1.52;1.15;;;;;;;19.31;61.63;99864.64;1759381;79;21033;-45
2021/05/15 07:38:11;;;;;;;2.75;1.90;;;;;;;19.32;61.86;99869.03;1760174;79;21395;-47
2021/05/15 07:40:38;;;;;;;2.92;1.70;;;;;;;19.33;61.30;99870.73;1755437;79;21109;-47
2021/05/15 07:43:05;;;;;;;2.67;1.15;;;;;;;19.35;60.98;99868.70;1748660;80;20973;-47
2021/05/15 07:45:32;;;;;;;2.42;1.70;;;;;;;19.37;60.35;99864.83;1746895;80;20975;-45
2021/05/15 07:48:00;;;;;;;2.17;1.50;;;;;;;19.41;60.17;99866.20;1710122;82;20983;-44
2021/05/15 07:50:28;;;;;;;3.55;1.20;;;;;;;19.42;59.82;99867.05;1707611;82;21514;-45
2021/05/15 07:52:55;;;;;;;1.50;1.10;;;;;;;19.43;59.33;99864.70;1748954;80;21026;-45
2021/05/15 07:55:23;;;;;;;2.67;1.60;;;;;;;19.47;59.42;99868.77;1700240;82;21022;-44
2021/05/15 07:57:53;;;;;;;0.65;0.60;;;;;;;19.51;58.80;99867.44;1729665;80;21002;-45
2021/05/15 08:00:20;;;;;;;2.72;0.90;;;;;;;19.55;58.12;99866.59;1746638;80;20986;-48
2021/05/15 08:02:46;;;;;;;3.52;1.90;;;;;;;19.55;57.17;99868.80;1745507;80;21006;-46
2021/05/15 08:05:14;;;;;;;1.75;1.22;;;;;;;19.52;56.72;99858.31;1737983;80;20994;-45
2021/05/15 08:07:43;;;;;;;1.30;1.00;;;;;;;19.53;56.48;99869.48;1749807;80;21030;-45
2021/05/15 08:10:11;;;;;;;1.75;1.12;;;;;;;19.52;56.86;99871.83;1752491;80;20998;-42
2021/05/15 08:12:38;;;;;;;2.22;1.15;;;;;;;19.56;56.73;99871.02;1750961;80;20970;-46
2021/05/15 08:15:06;;;;;;;1.35;0.82;;;;;;;19.60;56.39;99872.36;1697459;82;21054;-43
2021/05/15 08:17:34;;;;;;;2.10;0.80;;;;;;;19.64;56.41;99873.23;1687928;82;21878;-45
2021/05/15 08:20:02;;;;;;;5.03;0.72;;;;;;;19.70;56.84;99873.63;1749462;80;20986;-52
2021/05/15 08:22:29;;;;;;;2.87;0.75;;;;;;;19.73;56.03;99873.30;1756698;80;21010;-43
2021/05/15 08:24:57;;;;;;;1.87;0.70;;;;;;;19.73;55.69;99876.87;1751773;80;21647;-42
2021/05/15 08:27:25;;;;;;;1.22;0.70;;;;;;;19.76;56.04;99877.05;1697025;82;20990;-43
2021/05/15 08:29:52;;;;;;;1.55;0.80;;;;;;;19.78;56.09;99874.52;1695556;82;21014;-43
2021/05/15 08:32:20;;;;;;;1.92;0.88;;;;;;;19.82;55.68;99879.92;1701235;82;21354;-42
2021/05/15 08:34:47;;;;;;;1.07;0.80;;;;;;;19.83;55.19;99874.00;1701504;82;21035;-44
2021/05/15 08:37:14;;;;;;;0.60;0.60;;;;;;;19.82;55.18;99873.16;1747175;80;21010;-43
2021/05/15 08:39:41;;;;;;;1.45;0.93;;;;;;;19.85;55.69;99874.18;1702332;82;21082;-41
2021/05/15 08:42:08;;;;;;;1.17;1.00;;;;;;;19.89;55.44;99868.80;1723510;81;21053;-46
2021/05/15 08:44:37;;;;;;;1.15;0.65;;;;;;;19.97;55.73;99878.79;1764607;79;21009;-44
2021/05/15 08:47:05;;;;;;;0.85;0.78;;;;;;;20.01;54.51;99877.46;1757343;79;21009;-45
2021/05/15 08:49:31;;;;;;;0.85;0.75;;;;;;;20.07;53.57;99879.49;1768154;79;21005;-44
2021/05/15 08:51:58;;;;;;;7.03;4.62;;;;;;;20.12;53.65;99874.94;1767121;79;21069;-46
2021/05/15 08:54:25;;;;;;;3.00;2.25;;;;;;;20.17;53.77;99879.34;1763947;79;21006;-43
2021/05/15 08:56:52;;;;;;;6.33;2.37;;;;;;;20.21;53.92;99871.25;1759947;79;21029;-46
2021/05/15 08:59:19;;;;;;;7.47;5.08;;;;;;;20.26;54.21;99868.89;1760546;79;21037;-44
2021/05/15 09:01:46;;;;;;;1.50;1.30;;;;;;;20.28;53.95;99874.95;1762764;79;21014;-41
2021/05/15 09:04:12;;;;;;;1.20;0.98;;;;;;;20.30;53.86;99882.92;1767441;79;21002;-43
2021/05/15 09:06:41;;;;;;;1.50;0.88;;;;;;;20.31;53.68;99881.41;1762840;79;21045;-48
2021/05/15 09:09:08;;;;;;;1.85;1.42;;;;;;;20.33;53.42;99873.11;1702880;82;21025;-43
2021/05/15 09:11:37;;;;;;;1.40;1.10;;;;;;;20.38;53.20;99872.61;1759644;79;21332;-45
2021/05/15 09:14:03;;;;;;;0.50;0.50;;;;;;;20.44;52.51;99874.66;1764942;79;21489;-48
2021/05/15 09:16:30;;;;;;;1.55;0.50;;;;;;;20.47;52.23;99877.03;1768339;79;21041;-43
2021/05/15 09:19:05;;;;;;;1.45;0.68;;;;;;;20.50;52.09;99880.75;1757999;79;21005;-48
2021/05/15 09:21:34;;;;;;;3.58;0.72;;;;;;;20.52;52.51;99881.43;1771045;79;20990;-43
2021/05/15 09:24:05;;;;;;;1.47;0.80;;;;;;;20.55;52.16;99882.98;1767517;79;21045;-50
2021/05/15 09:26:29;;;;;;;0.95;0.80;;;;;;;20.56;51.75;99887.37;1761993;79;21529;-44
2021/05/15 09:28:56;;;;;;;2.02;0.50;;;;;;;20.56;52.08;99884.66;1765126;79;21077;-43
2021/05/15 09:31:29;;;;;;;4.60;3.30;;;;;;;20.57;51.93;99885.02;1763491;79;21525;-43
2021/05/15 09:34:01;;;;;;;4.15;2.83;;;;;;;20.57;51.85;99882.31;1761232;79;21026;-46
2021/05/15 09:36:34;;;;;;;4.00;1.35;;;;;;;20.62;51.80;99888.07;1766847;79;21025;-44
2021/05/15 09:39:13;;;;;;;1.52;0.90;;;;;;;20.67;50.93;99873.52;1760600;79;21089;-43
2021/05/15 09:41:50;;;;;;;3.47;1.75;;;;;;;20.71;50.72;99874.36;1761720;79;21029;-45
2021/05/15 09:44:20;;;;;;;1.32;1.10;;;;;;;20.78;50.81;99883.99;1768799;80;21555;-44
2021/05/15 09:46:49;;;;;;;1.37;0.70;;;;;;;20.81;50.05;99875.52;1760883;79;22252;-44
2021/05/15 09:49:17;;;;;;;1.30;0.50;;;;;;;20.83;48.92;99884.84;1757366;79;20995;-46
2021/05/15 09:52:05;;;;;;;2.27;0.60;;;;;;;20.85;46.62;99882.30;1763153;79;21061;-45
2021/05/15 09:54:40;;;;;;;1.22;0.78;;;;;;;20.85;45.71;99878.75;1766668;79;20986;-45
2021/05/15 09:57:13;;;;;;;1.02;0.57;;;;;;;20.84;45.49;99877.04;1763083;79;21369;-44
2021/05/15 09:59:44;;;;;;;1.30;0.60;;;;;;;20.84;45.99;99883.33;1761060;80;21576;-45
2021/05/15 10:02:15;;;;;;;1.82;0.90;;;;;;;20.83;46.18;99902.45;1760809;79;21041;-43
2021/05/15 10:04:45;;;;;;;1.20;0.88;;;;;;;20.82;47.58;99900.26;1760715;79;21041;-45
2021/05/15 10:07:26;;;;;;;1.20;0.80;;;;;;;20.80;48.84;99902.28;1764829;79;22243;-53
2021/05/15 10:09:52;;;;;;;3.22;1.15;;;;;;;20.79;49.28;99907.38;1760147;81;21037;-48
2021/05/15 10:12:19;;;;;;;3.42;2.45;;;;;;;20.78;49.64;99904.31;1763984;79;21029;-46
2021/05/15 10:14:46;;;;;;;2.90;2.25;;;;;;;20.77;49.42;99902.63;1761727;79;21512;-44
2021/05/15 10:17:13;;;;;;;3.40;2.22;;;;;;;20.76;49.81;99910.40;1761775;79;20997;-42
2021/05/15 10:19:41;;;;;;;1.20;1.10;;;;;;;20.77;49.83;99902.63;1757708;79;21579;-45
2021/05/15 10:22:07;;;;;;;1.32;1.15;;;;;;;20.71;49.23;99900.09;1761145;79;20982;-43
2021/05/15 10:24:36;;;;;;;3.37;0.88;;;;;;;20.66;49.51;99900.24;1761505;79;21081;-45
2021/05/15 10:27:10;;;;;;;0.80;0.70;;;;;;;20.65;50.35;99906.69;1762095;79;21009;-46
2021/05/15 10:29:49;;;;;;;2.90;1.20;;;;;;;20.68;49.98;99901.77;1761959;79;21073;-45
2021/05/15 10:32:30;;;;;;;2.08;1.30;;;;;;;20.71;49.65;99900.58;1764171;79;21002;-43
2021/05/15 10:35:07;;;;;;;1.17;0.95;;;;;;;20.75;49.86;99897.88;1759085;79;21493;-42
2021/05/15 10:37:45;;;;;;;1.98;0.85;;;;;;;20.77;49.36;99904.50;1757662;79;21010;-46
2021/05/15 10:40:20;;;;;;;3.17;1.20;;;;;;;20.78;49.84;99898.05;1755853;79;21881;-45
2021/05/15 10:43:01;;;;;;;4.85;1.50;;;;;;;20.77;49.79;99901.27;1759273;79;21058;-45
2021/05/15 10:45:39;;;;;;;2.20;1.72;;;;;;;20.70;49.34;99896.19;1763185;79;21004;-45
2021/05/15 10:48:25;;;;;;;1.95;1.15;;;;;;;20.65;49.62;99891.79;1758173;79;21025;-42
2021/05/15 10:50:57;;;;;;;1.67;1.40;;;;;;;20.59;49.82;99889.26;1763646;79;21045;-45
2021/05/15 10:53:27;;;;;;;2.80;2.15;;;;;;;20.56;49.92;99891.44;1759684;79;21029;-44
2021/05/15 10:56:12;;;;;;;3.83;1.50;;;;;;;20.56;51.01;99898.20;1750022;79;21014;-46
2021/05/15 10:58:50;;;;;;;0.70;0.70;;;;;;;20.58;50.51;99901.09;1749762;81;21530;-41
2021/05/15 11:01:20;;;;;;;1.30;1.10;;;;;;;20.59;49.73;99901.45;1756660;79;21992;-44
2021/05/15 11:03:48;;;;;;;1.00;0.70;;;;;;;20.63;49.85;99901.42;1762646;79;21009;-43
2021/05/15 11:06:19;;;;;;;2.25;0.80;;;;;;;20.67;50.03;99909.56;1758663;79;21018;-43
2021/05/15 11:08:59;;;;;;;1.10;0.78;;;;;;;20.71;50.07;99911.41;1763983;79;20974;-44
2021/05/15 11:11:38;;;;;;;1.12;0.55;;;;;;;20.77;50.10;99914.82;1763683;79;21046;-42
2021/05/15 11:14:25;;;;;;;0.95;0.50;;;;;;;20.81;48.94;99918.86;1763276;80;21293;-45
2021/05/15 11:17:15;;;;;;;1.77;1.05;;;;;;;20.82;48.59;99921.09;1762701;79;21022;-45
2021/05/15 11:20:13;;;;;;;1.32;0.93;;;;;;;20.83;48.55;99913.29;1752097;79;21049;-45
2021/05/15 11:22:44;;;;;;;1.17;0.90;;;;;;;20.84;48.59;99914.48;1758201;80;21061;-45
2021/05/15 11:25:19;;;;;;;1.45;1.30;;;;;;;20.86;49.14;99914.30;1731893;81;21526;-43
2021/05/15 11:27:57;;;;;;;2.58;1.67;;;;;;;20.83;49.95;99923.61;1753927;79;20998;-47
2021/05/15 11:30:44;;;;;;;2.00;1.10;;;;;;;20.80;50.86;99925.83;1765585;79;20977;-48
2021/05/15 11:33:13;;;;;;;2.10;1.10;;;;;;;20.76;52.22;99929.36;1760097;79;20985;-45
2021/05/15 11:35:45;;;;;;;2.12;1.30;;;;;;;20.70;52.42;99928.69;1757770;79;21493;-45
2021/05/15 11:38:22;;;;;;;1.50;1.37;;;;;;;20.64;53.70;99936.16;1760188;79;21037;-48
2021/05/15 11:40:53;;;;;;;4.08;1.55;;;;;;;20.49;53.78;99927.80;1760113;79;21097;-42